createdAt,value
2022-10-05T00:00:59.381Z,11.57
2022-10-05T00:03:38.532Z,11.58
2022-10-05T00:06:10.335Z,11.56
2022-10-05T00:08:40.074Z,11.58
2022-10-05T00:11:11.573Z,11.55
2022-10-05T00:13:40.985Z,11.56
2022-10-05T00:16:15.116Z,11.55
2022-10-05T00:18:50.792Z,11.54
2022-10-05T00:21:24.558Z,11.54
2022-10-05T00:23:58.201Z,11.55
2022-10-05T00:26:33.015Z,11.55
2022-10-05T00:29:04.343Z,11.54
2022-10-05T00:31:34.312Z,11.53
2022-10-05T00:34:02.805Z,11.54
2022-10-05T00:36:31.825Z,11.54
2022-10-05T00:39:03.207Z,11.53
2022-10-05T00:41:39.187Z,11.54
2022-10-05T00:44:24.736Z,11.53
2022-10-05T00:46:56.674Z,11.51
2022-10-05T00:49:44.024Z,11.50
2022-10-05T00:52:21.810Z,11.49
2022-10-05T00:54:55.453Z,11.49
2022-10-05T00:57:34.274Z,11.50
2022-10-05T01:00:07.962Z,11.51
2022-10-05T01:02:45.852Z,11.46
2022-10-05T01:05:18.856Z,11.41
2022-10-05T01:07:54.301Z,11.43
2022-10-05T01:10:30.628Z,11.40
2022-10-05T01:13:06.485Z,11.39
2022-10-05T01:15:42.473Z,11.40
2022-10-05T01:18:14.954Z,11.42
2022-10-05T01:20:51.374Z,11.42
2022-10-05T01:24:03.233Z,11.45
2022-10-05T01:27:08.452Z,11.42
2022-10-05T01:29:45.687Z,11.44
2022-10-05T01:32:19.521Z,11.42
2022-10-05T01:34:52.721Z,11.42
2022-10-05T01:37:26.856Z,11.38
2022-10-05T01:40:03.392Z,11.39
2022-10-05T01:42:40.695Z,11.39
2022-10-05T01:45:13.931Z,11.39
2022-10-05T01:47:45.823Z,11.38
2022-10-05T01:50:21.678Z,11.36
2022-10-05T01:52:56.745Z,11.40
2022-10-05T01:55:31.889Z,11.37
2022-10-05T01:58:08.123Z,11.36
2022-10-05T02:00:46.806Z,11.37
2022-10-05T02:03:20.562Z,11.36
2022-10-05T02:05:53.009Z,11.38
2022-10-05T02:08:26.265Z,11.37
2022-10-05T02:11:02.328Z,11.39
2022-10-05T02:13:36.762Z,11.42
2022-10-05T02:16:08.666Z,11.41
2022-10-05T02:18:40.706Z,11.43
2022-10-05T02:21:11.654Z,11.44
2022-10-05T02:23:42.510Z,11.44
2022-10-05T02:26:13.142Z,11.46
2022-10-05T02:28:46.258Z,11.44
2022-10-05T02:31:17.012Z,11.43
2022-10-05T02:33:45.381Z,11.42
2022-10-05T02:36:17.257Z,11.43
2022-10-05T02:38:55.383Z,11.42
2022-10-05T02:41:34.748Z,11.44
2022-10-05T02:44:10.456Z,11.46
2022-10-05T02:46:42.383Z,11.47
2022-10-05T02:49:18.423Z,11.47
2022-10-05T02:51:51.196Z,11.46
2022-10-05T02:54:36.711Z,11.45
2022-10-05T02:57:13.081Z,11.47
2022-10-05T02:59:44.738Z,11.48
2022-10-05T03:02:18.294Z,11.46
2022-10-05T03:04:55.595Z,11.45
2022-10-05T03:07:29.576Z,11.43
2022-10-05T03:10:03.754Z,11.43
2022-10-05T03:12:45.945Z,11.42
2022-10-05T03:15:23.271Z,11.43
2022-10-05T03:18:00.052Z,11.43
2022-10-05T03:20:36.473Z,11.46
2022-10-05T03:23:07.815Z,11.45
2022-10-05T03:25:50.404Z,11.47
2022-10-05T03:28:24.676Z,11.50
2022-10-05T03:31:00.461Z,11.52
2022-10-05T03:33:36.627Z,11.51
2022-10-05T03:36:15.521Z,11.45
2022-10-05T03:38:48.956Z,11.45
2022-10-05T03:41:24.476Z,11.41
2022-10-05T03:44:24.050Z,11.37
2022-10-05T03:47:02.881Z,11.37
2022-10-05T03:49:39.057Z,11.38
2022-10-05T03:52:12.725Z,11.38
2022-10-05T03:54:43.335Z,11.38
2022-10-05T03:57:13.892Z,11.34
2022-10-05T03:59:49.337Z,11.29
2022-10-05T04:02:24.791Z,11.29
2022-10-05T04:04:58.776Z,11.28
2022-10-05T04:07:36.029Z,11.31
2022-10-05T04:10:13.420Z,11.30
2022-10-05T04:12:43.984Z,11.30
2022-10-05T04:15:21.693Z,11.32
2022-10-05T04:17:54.141Z,11.33
2022-10-05T04:20:25.016Z,11.37
2022-10-05T04:22:59.703Z,11.38
2022-10-05T04:25:30.982Z,11.42
2022-10-05T04:28:05.176Z,11.44
2022-10-05T04:30:38.595Z,11.45
2022-10-05T04:33:10.624Z,11.46
2022-10-05T04:35:51.035Z,11.50
2022-10-05T04:38:28.408Z,11.54
2022-10-05T04:41:08.043Z,11.59
2022-10-05T04:43:46.688Z,11.62
2022-10-05T04:46:24.319Z,11.63
2022-10-05T04:49:16.797Z,11.64
2022-10-05T04:51:53.580Z,11.62
2022-10-05T04:54:30.367Z,11.62
2022-10-05T04:57:01.634Z,11.61
2022-10-05T04:59:45.255Z,11.62
2022-10-05T05:02:21.010Z,11.64
2022-10-05T05:05:01.896Z,11.65
2022-10-05T05:07:42.125Z,11.65
2022-10-05T05:10:38.469Z,11.65
2022-10-05T05:13:21.570Z,11.67
2022-10-05T05:15:53.978Z,11.69
2022-10-05T05:18:45.986Z,11.64
2022-10-05T05:21:22.179Z,11.63
2022-10-05T05:23:55.440Z,11.63
2022-10-05T05:26:27.182Z,11.66
2022-10-05T05:29:05.352Z,11.68
2022-10-05T05:31:43.399Z,11.75
2022-10-05T05:34:32.630Z,11.82
2022-10-05T05:37:06.533Z,11.87
2022-10-05T05:39:40.023Z,11.89
2022-10-05T05:42:21.042Z,11.91
2022-10-05T05:44:52.124Z,11.98
2022-10-05T05:47:27.314Z,12.02
2022-10-05T05:50:07.360Z,12.09
2022-10-05T05:52:41.265Z,12.13
2022-10-05T05:55:16.572Z,12.16
2022-10-05T05:57:49.107Z,12.21
2022-10-05T06:00:22.247Z,12.29
2022-10-05T06:02:55.255Z,12.36
2022-10-05T06:05:30.472Z,12.40
2022-10-05T06:08:03.391Z,12.45
2022-10-05T06:10:38.749Z,12.51
2022-10-05T06:13:16.030Z,12.59
2022-10-05T06:15:49.071Z,12.69
2022-10-05T06:18:22.481Z,12.79
2022-10-05T06:20:55.187Z,12.84
2022-10-05T06:23:27.664Z,12.88
2022-10-05T06:26:11.543Z,12.94
2022-10-05T06:28:40.130Z,13.07
2022-10-05T06:31:18.362Z,13.21
2022-10-05T06:33:51.329Z,13.33
2022-10-05T06:36:28.320Z,13.46
2022-10-05T06:39:26.991Z,13.60
2022-10-05T06:42:06.643Z,13.80
2022-10-05T06:44:39.637Z,13.92
2022-10-05T06:47:16.458Z,14.04
2022-10-05T06:49:53.410Z,14.19
2022-10-05T06:52:27.227Z,14.39
2022-10-05T06:55:14.077Z,14.57
2022-10-05T06:57:53.250Z,14.79
2022-10-05T07:00:24.095Z,14.94
2022-10-05T07:02:57.768Z,15.08
2022-10-05T07:05:54.469Z,15.26
2022-10-05T07:08:30.499Z,15.46
2022-10-05T07:11:06.763Z,15.68
2022-10-05T07:14:11.196Z,15.86
2022-10-05T07:16:46.819Z,16.07
2022-10-05T07:19:28.496Z,16.23
2022-10-05T07:22:52.694Z,16.40
2022-10-05T07:25:26.823Z,16.64
2022-10-05T07:28:03.021Z,16.78
2022-10-05T07:30:34.100Z,16.98
2022-10-05T07:33:08.772Z,17.10
2022-10-05T07:36:08.736Z,17.25
2022-10-05T07:38:43.155Z,17.47
2022-10-05T07:41:15.630Z,17.65
2022-10-05T07:44:03.864Z,17.84
2022-10-05T07:46:44.982Z,18.04
2022-10-05T07:49:23.102Z,18.20
2022-10-05T07:51:55.260Z,18.34
2022-10-05T07:54:25.684Z,18.44
2022-10-05T07:57:03.069Z,18.53
2022-10-05T07:59:38.721Z,18.60
2022-10-05T08:02:15.379Z,18.67
2022-10-05T08:04:51.139Z,18.78
2022-10-05T08:07:21.076Z,18.86
2022-10-05T08:09:53.792Z,18.95
2022-10-05T08:12:30.181Z,19.07
2022-10-05T08:15:03.075Z,19.17
2022-10-05T08:17:41.437Z,19.26
2022-10-05T08:20:33.233Z,19.36
2022-10-05T08:23:08.899Z,19.48
2022-10-05T08:25:46.093Z,19.52
2022-10-05T08:28:19.377Z,19.62
2022-10-05T08:30:57.110Z,19.75
2022-10-05T08:33:27.808Z,19.91
2022-10-05T08:36:05.215Z,19.98
2022-10-05T08:38:34.578Z,20.06
2022-10-05T08:41:38.343Z,20.17
2022-10-05T08:44:50.914Z,20.35
2022-10-05T08:47:35.434Z,20.51
2022-10-05T08:50:30.135Z,20.69
2022-10-05T08:53:21.925Z,20.88
2022-10-05T08:56:01.586Z,21.04
2022-10-05T08:58:51.018Z,21.19
2022-10-05T09:01:22.851Z,21.37
2022-10-05T09:04:17.266Z,21.54
2022-10-05T09:07:10.600Z,21.74
2022-10-05T09:10:05.560Z,21.82
2022-10-05T09:13:22.053Z,21.85
2022-10-05T09:16:07.159Z,21.91
2022-10-05T09:19:02.424Z,21.98
2022-10-05T09:21:42.727Z,21.97
2022-10-05T09:24:26.269Z,21.95
2022-10-05T09:27:03.498Z,21.92
2022-10-05T09:30:10.186Z,21.98
2022-10-05T09:33:02.603Z,22.06
2022-10-05T09:36:00.302Z,22.15
2022-10-05T09:38:38.622Z,22.27
2022-10-05T09:41:54.751Z,22.32
2022-10-05T09:45:01.799Z,22.45
2022-10-05T09:48:11.464Z,22.50
2022-10-05T09:51:10.028Z,22.40
2022-10-05T09:53:51.680Z,22.36
2022-10-05T09:56:36.719Z,22.52
2022-10-05T09:59:51.197Z,22.56
2022-10-05T10:02:33.718Z,22.70
2022-10-05T10:05:21.298Z,22.80
2022-10-05T10:08:11.937Z,22.90
2022-10-05T10:10:58.806Z,22.95
2022-10-05T10:13:59.688Z,23.05
2022-10-05T10:16:42.628Z,23.15
2022-10-05T10:19:38.600Z,23.26
2022-10-05T10:22:27.546Z,23.42
2022-10-05T10:25:10.882Z,23.55
2022-10-05T10:28:14.731Z,23.65
2022-10-05T10:31:02.592Z,23.70
2022-10-05T10:34:02.638Z,23.92
2022-10-05T10:36:49.769Z,24.03
2022-10-05T10:39:23.772Z,24.14
2022-10-05T10:42:42.694Z,24.20
2022-10-05T10:45:33.752Z,24.23
2022-10-05T10:48:04.996Z,24.25
2022-10-05T10:51:14.843Z,24.28
2022-10-05T10:54:34.343Z,24.28
2022-10-05T10:57:07.443Z,24.34
2022-10-05T11:00:04.958Z,24.37
2022-10-05T11:03:08.214Z,24.42
2022-10-05T11:05:58.230Z,24.40
2022-10-05T11:08:57.535Z,24.38
2022-10-05T11:11:48.748Z,24.43
2022-10-05T11:14:46.454Z,24.39
2022-10-05T11:17:28.704Z,24.43
2022-10-05T11:20:08.677Z,24.40
2022-10-05T11:22:52.452Z,24.43
2022-10-05T11:25:34.032Z,24.42
2022-10-05T11:28:14.047Z,24.41
2022-10-05T11:31:14.255Z,24.40
2022-10-05T11:34:03.045Z,24.51
2022-10-05T11:37:08.709Z,24.50
2022-10-05T11:39:38.241Z,24.60
2022-10-05T11:42:33.863Z,24.61
2022-10-05T11:45:23.820Z,24.69
2022-10-05T11:48:19.661Z,24.79
2022-10-05T11:50:54.475Z,24.91
2022-10-05T11:53:26.942Z,25.02
2022-10-05T11:56:03.659Z,25.05
2022-10-05T11:58:36.834Z,25.09
2022-10-05T12:01:15.250Z,25.05
2022-10-05T12:03:50.725Z,25.03
2022-10-05T12:06:44.150Z,25.07
2022-10-05T12:09:23.356Z,25.12
2022-10-05T12:12:01.846Z,25.22
2022-10-05T12:14:38.045Z,25.34
2022-10-05T12:17:13.261Z,25.41
2022-10-05T12:19:45.898Z,25.54
2022-10-05T12:22:19.810Z,25.60
2022-10-05T12:25:15.017Z,25.67
2022-10-05T12:27:47.088Z,25.76
2022-10-05T12:30:26.075Z,25.75
2022-10-05T12:33:04.746Z,25.70
2022-10-05T12:35:53.527Z,25.61
2022-10-05T12:38:28.769Z,25.63
2022-10-05T12:41:05.650Z,25.70
2022-10-05T12:43:42.941Z,25.74
2022-10-05T12:46:20.483Z,25.73
2022-10-05T12:49:12.651Z,25.75
2022-10-05T12:51:44.096Z,25.85
2022-10-05T12:54:22.814Z,25.95
2022-10-05T12:56:55.940Z,25.99
2022-10-05T12:59:35.939Z,25.97
2022-10-05T13:02:14.902Z,25.87
2022-10-05T13:04:49.408Z,25.82
2022-10-05T13:07:31.609Z,25.75
2022-10-05T13:10:08.750Z,25.60
2022-10-05T13:12:48.514Z,25.49
2022-10-05T13:15:22.381Z,25.44
2022-10-05T13:18:01.913Z,25.30
2022-10-05T13:20:34.760Z,25.19
2022-10-05T13:23:12.689Z,25.17
2022-10-05T13:25:44.841Z,25.11
2022-10-05T13:28:17.147Z,25.02
2022-10-05T13:30:53.541Z,24.95
2022-10-05T13:33:28.550Z,24.87
2022-10-05T13:36:03.677Z,24.79
2022-10-05T13:38:45.547Z,24.78
2022-10-05T13:41:23.136Z,24.75
2022-10-05T13:44:03.383Z,24.65
2022-10-05T13:46:37.623Z,24.62
2022-10-05T13:49:22.491Z,24.56
2022-10-05T13:51:58.175Z,24.48
2022-10-05T13:54:34.465Z,24.45
2022-10-05T13:57:10.843Z,24.49
2022-10-05T13:59:46.600Z,24.50
2022-10-05T14:02:22.296Z,24.50
2022-10-05T14:05:01.161Z,24.52
2022-10-05T14:07:38.545Z,24.54
2022-10-05T14:10:13.173Z,24.50
2022-10-05T14:12:44.265Z,24.50
2022-10-05T14:15:22.802Z,24.52
2022-10-05T14:17:53.677Z,24.57
2022-10-05T14:20:28.030Z,24.55
2022-10-05T14:23:01.985Z,24.51
2022-10-05T14:25:31.733Z,24.46
2022-10-05T14:28:04.162Z,24.47
2022-10-05T14:30:34.425Z,24.43
2022-10-05T14:33:15.833Z,24.40
2022-10-05T14:35:48.776Z,24.41
2022-10-05T14:38:21.934Z,24.37
2022-10-05T14:41:16.652Z,24.35
2022-10-05T14:44:02.054Z,24.29
2022-10-05T14:46:32.583Z,24.19
2022-10-05T14:49:20.917Z,24.11
2022-10-05T14:51:51.529Z,24.01
2022-10-05T14:54:33.783Z,23.88
2022-10-05T14:57:09.453Z,23.80
2022-10-05T15:00:04.245Z,23.73
2022-10-05T15:03:00.510Z,23.69
2022-10-05T15:05:33.691Z,23.54
2022-10-05T15:08:12.244Z,23.44
2022-10-05T15:10:43.293Z,23.36
2022-10-05T15:13:16.820Z,23.31
2022-10-05T15:15:51.446Z,23.19
2022-10-05T15:18:32.173Z,23.05
2022-10-05T15:21:15.246Z,22.96
2022-10-05T15:23:49.504Z,22.88
2022-10-05T15:26:29.839Z,22.78
2022-10-05T15:29:01.918Z,22.72
2022-10-05T15:31:38.838Z,22.66
2022-10-05T15:34:13.019Z,22.56
2022-10-05T15:36:51.115Z,22.48
2022-10-05T15:39:26.351Z,22.43
2022-10-05T15:42:02.159Z,22.34
2022-10-05T15:44:51.534Z,22.21
2022-10-05T15:47:25.343Z,22.12
2022-10-05T15:50:02.823Z,22.03
2022-10-05T15:52:38.302Z,21.95
2022-10-05T15:55:23.168Z,21.86
2022-10-05T15:58:00.227Z,21.78
2022-10-05T16:00:30.300Z,21.69
2022-10-05T16:03:09.140Z,21.61
2022-10-05T16:06:02.496Z,21.51
2022-10-05T16:08:53.576Z,21.43
2022-10-05T16:11:36.050Z,21.34
2022-10-05T16:14:17.710Z,21.26
2022-10-05T16:17:01.568Z,21.21
2022-10-05T16:19:36.372Z,21.16
2022-10-05T16:22:13.465Z,21.07
2022-10-05T16:24:52.923Z,20.99
2022-10-05T16:27:28.265Z,20.93
2022-10-05T16:30:03.377Z,20.87
2022-10-05T16:32:39.303Z,20.83
2022-10-05T16:35:16.276Z,20.79
2022-10-05T16:37:52.386Z,20.76
2022-10-05T16:40:29.282Z,20.71
2022-10-05T16:43:04.944Z,20.67
2022-10-05T16:45:45.901Z,20.61
2022-10-05T16:48:19.811Z,20.53
2022-10-05T16:51:16.216Z,20.49
2022-10-05T16:53:55.428Z,20.44
2022-10-05T16:56:27.586Z,20.40
2022-10-05T16:59:05.359Z,20.36
2022-10-05T17:01:46.476Z,20.31
2022-10-05T17:04:25.485Z,20.23
2022-10-05T17:07:10.730Z,20.18
2022-10-05T17:09:49.045Z,20.12
2022-10-05T17:12:28.791Z,20.05
2022-10-05T17:15:09.523Z,19.98
2022-10-05T17:17:51.105Z,19.95
2022-10-05T17:20:42.469Z,19.92
2022-10-05T17:23:31.192Z,19.89
2022-10-05T17:26:32.968Z,19.85
2022-10-05T17:29:10.299Z,19.83
2022-10-05T17:32:08.465Z,19.82
2022-10-05T17:34:39.807Z,19.81
2022-10-05T17:37:35.339Z,19.79
2022-10-05T17:40:33.515Z,19.78
2022-10-05T17:43:19.921Z,19.78
2022-10-05T17:45:54.557Z,19.76
2022-10-05T17:49:07.211Z,19.70
2022-10-05T17:52:34.012Z,19.64
2022-10-05T17:55:27.666Z,19.59
2022-10-05T17:58:01.011Z,19.53
2022-10-05T18:00:41.452Z,19.51
2022-10-05T18:03:40.379Z,19.51
2022-10-05T18:06:47.617Z,19.50
2022-10-05T18:09:32.487Z,19.51
2022-10-05T18:12:27.588Z,19.50
2022-10-05T18:15:00.996Z,19.51
2022-10-05T18:17:51.359Z,19.51
2022-10-05T18:20:30.905Z,19.52
2022-10-05T18:23:29.522Z,19.52
2022-10-05T18:26:06.169Z,19.51
2022-10-05T18:28:50.106Z,19.51
2022-10-05T18:31:28.741Z,19.51
2022-10-05T18:34:07.541Z,19.47
2022-10-05T18:36:59.068Z,19.46
2022-10-05T18:39:41.706Z,19.42
2022-10-05T18:42:17.039Z,19.38
2022-10-05T18:44:49.568Z,19.33
2022-10-05T18:47:22.208Z,19.30
2022-10-05T18:50:11.462Z,19.24
2022-10-05T18:52:48.927Z,19.20
2022-10-05T18:55:26.714Z,19.16
2022-10-05T18:58:11.334Z,19.13
2022-10-05T19:01:11.025Z,19.11
2022-10-05T19:03:49.648Z,19.10
2022-10-05T19:06:27.421Z,19.04
2022-10-05T19:09:02.183Z,19.01
2022-10-05T19:11:39.065Z,18.98
2022-10-05T19:14:26.496Z,18.93
2022-10-05T19:17:05.272Z,18.89
2022-10-05T19:19:45.914Z,18.82
2022-10-05T19:22:26.780Z,18.79
2022-10-05T19:25:10.049Z,18.75
2022-10-05T19:27:45.586Z,18.63
2022-10-05T19:30:19.992Z,18.55
2022-10-05T19:33:14.690Z,18.45
2022-10-05T19:35:57.436Z,18.38
2022-10-05T19:38:32.075Z,18.35
2022-10-05T19:41:11.240Z,18.29
2022-10-05T19:43:53.502Z,18.21
2022-10-05T19:46:33.667Z,18.14
2022-10-05T19:49:02.430Z,18.07
2022-10-05T19:51:37.140Z,17.99
2022-10-05T19:54:16.706Z,17.94
2022-10-05T19:56:49.140Z,17.89
2022-10-05T19:59:21.119Z,17.81
2022-10-05T20:01:51.377Z,17.73
2022-10-05T20:04:40.334Z,17.67
2022-10-05T20:07:14.992Z,17.61
2022-10-05T20:09:57.453Z,17.56
2022-10-05T20:12:51.950Z,17.53
2022-10-05T20:15:42.024Z,17.47
2022-10-05T20:18:55.289Z,17.41
2022-10-05T20:21:43.853Z,17.37
2022-10-05T20:24:14.913Z,17.31
2022-10-05T20:27:04.986Z,17.28
2022-10-05T20:29:38.876Z,17.27
2022-10-05T20:32:09.733Z,17.27
2022-10-05T20:34:43.044Z,17.24
2022-10-05T20:37:13.276Z,17.21
2022-10-05T20:39:43.007Z,17.18
2022-10-05T20:42:14.663Z,17.17
2022-10-05T20:44:43.634Z,17.14
2022-10-05T20:47:13.157Z,17.17
2022-10-05T20:49:43.845Z,17.17
2022-10-05T20:52:14.493Z,17.17
2022-10-05T20:57:21.654Z,17.17
2022-10-05T20:59:52.306Z,17.18
2022-10-05T21:02:20.700Z,17.15
2022-10-05T21:04:51.969Z,17.14
2022-10-05T21:07:22.882Z,17.12
2022-10-05T21:09:53.304Z,17.09
2022-10-05T21:12:22.158Z,17.07
2022-10-05T21:14:52.471Z,17.03
2022-10-05T21:17:22.972Z,17.00
2022-10-05T21:19:53.862Z,16.95
2022-10-05T21:22:22.590Z,16.92
2022-10-05T21:24:51.810Z,16.89
2022-10-05T21:27:20.393Z,16.82
2022-10-05T21:29:49.473Z,16.74
2022-10-05T21:32:17.978Z,16.70
2022-10-05T21:34:46.957Z,16.64
2022-10-05T21:37:17.568Z,16.58
2022-10-05T21:39:46.193Z,16.53
2022-10-05T21:42:14.859Z,16.45
2022-10-05T21:44:43.259Z,16.36
2022-10-05T21:47:12.913Z,16.37
2022-10-05T21:49:42.166Z,16.37
2022-10-05T21:52:15.911Z,16.36
2022-10-05T21:54:44.295Z,16.37
2022-10-05T21:57:15.945Z,16.38
2022-10-05T21:59:45.742Z,16.36
2022-10-05T22:02:14.993Z,16.35
2022-10-05T22:04:43.839Z,16.32
2022-10-05T22:07:17.923Z,16.29
2022-10-05T22:09:48.553Z,16.26
2022-10-05T22:12:19.395Z,16.23
2022-10-05T22:14:50.075Z,16.18
2022-10-05T22:17:27.374Z,16.14
2022-10-05T22:19:57.079Z,16.13
2022-10-05T22:22:26.527Z,16.10
2022-10-05T22:24:56.718Z,16.05
2022-10-05T22:27:27.073Z,15.98
2022-10-05T22:29:56.292Z,15.92
2022-10-05T22:32:25.319Z,15.86
2022-10-05T22:34:54.373Z,15.81
2022-10-05T22:37:23.464Z,15.79
2022-10-05T22:39:54.634Z,15.78
2022-10-05T22:42:27.718Z,15.78
2022-10-05T22:44:57.565Z,15.78
2022-10-05T22:47:27.144Z,15.77
2022-10-05T22:49:57.848Z,15.77
2022-10-05T22:52:27.842Z,15.73
2022-10-05T22:54:57.601Z,15.72
2022-10-05T22:57:26.964Z,15.71
2022-10-05T22:59:57.639Z,15.68
2022-10-05T23:02:27.831Z,15.64
2022-10-05T23:04:59.304Z,15.60
2022-10-05T23:07:29.760Z,15.58
2022-10-05T23:09:59.355Z,15.55
2022-10-05T23:12:29.502Z,15.52
2022-10-05T23:14:59.298Z,15.51
2022-10-05T23:17:28.460Z,15.48
2022-10-05T23:19:57.996Z,15.47
2022-10-05T23:22:26.608Z,15.47
2022-10-05T23:24:55.671Z,15.48
2022-10-05T23:27:25.679Z,15.50
2022-10-05T23:29:54.258Z,15.52
2022-10-05T23:32:22.958Z,15.54
2022-10-05T23:34:52.871Z,15.54
2022-10-05T23:37:23.409Z,15.52
2022-10-05T23:39:52.857Z,15.52
2022-10-05T23:42:23.143Z,15.52
2022-10-05T23:44:51.717Z,15.54
2022-10-05T23:47:22.248Z,15.56
2022-10-05T23:49:50.936Z,15.57
2022-10-05T23:52:20.220Z,15.58
2022-10-05T23:54:49.483Z,15.56
2022-10-05T23:57:19.046Z,15.55
2022-10-05T23:59:49.659Z,15.54
